createdAt,value
2023-05-11T00:00:39.843Z,89723.16
2023-05-11T00:03:06.982Z,89735.94
2023-05-11T00:05:33.541Z,89723.16
2023-05-11T00:07:59.886Z,89723.81
2023-05-11T00:10:28.165Z,89725.72
2023-05-11T00:12:54.504Z,89727.59
2023-05-11T00:15:21.080Z,89734.38
2023-05-11T00:17:47.932Z,89708.00
2023-05-11T00:20:14.286Z,89711.78
2023-05-11T00:22:43.490Z,89707.59
2023-05-11T00:25:11.585Z,89716.56
2023-05-11T00:27:38.180Z,89717.72
2023-05-11T00:30:05.036Z,89721.47
2023-05-11T00:32:31.605Z,89715.78
2023-05-11T00:34:58.005Z,89701.84
2023-05-11T00:37:25.894Z,89667.72
2023-05-11T00:39:53.072Z,89689.31
2023-05-11T00:42:19.406Z,89708.16
2023-05-11T00:44:45.874Z,89715.00
2023-05-11T00:47:12.934Z,89690.84
2023-05-11T00:49:39.825Z,89703.25
2023-05-11T00:52:06.348Z,89695.75
2023-05-11T00:54:33.767Z,89706.22
2023-05-11T00:57:00.118Z,89698.72
2023-05-11T00:59:27.149Z,89679.88
2023-05-11T01:01:54.147Z,89680.56
2023-05-11T01:04:20.772Z,89675.69
2023-05-11T01:07:18.271Z,89669.19
2023-05-11T01:10:03.747Z,89676.69
2023-05-11T01:12:34.897Z,89671.53
2023-05-11T01:15:13.441Z,89664.66
2023-05-11T01:17:59.751Z,89687.25
2023-05-11T01:20:29.350Z,89656.75
2023-05-11T01:23:00.878Z,89649.56
2023-05-11T01:25:52.510Z,89649.53
2023-05-11T01:28:40.377Z,89613.31
2023-05-11T01:31:11.620Z,89611.41
2023-05-11T01:33:44.314Z,89587.97
2023-05-11T01:36:12.683Z,89604.97
2023-05-11T01:38:42.185Z,89595.19
2023-05-11T01:41:13.634Z,89602.66
2023-05-11T01:43:42.960Z,89603.44
2023-05-11T01:46:10.671Z,89590.97
2023-05-11T01:48:41.493Z,89601.50
2023-05-11T01:51:10.383Z,89610.91
2023-05-11T01:53:38.368Z,89584.50
2023-05-11T01:56:06.914Z,89572.44
2023-05-11T01:58:35.962Z,89570.50
2023-05-11T02:01:04.027Z,89536.16
2023-05-11T02:03:33.344Z,89538.41
2023-05-11T02:06:01.570Z,89551.19
2023-05-11T02:08:31.110Z,89533.78
2023-05-11T02:10:59.285Z,89526.59
2023-05-11T02:13:27.383Z,89517.56
2023-05-11T02:15:58.928Z,89488.44
2023-05-11T02:18:25.893Z,89503.50
2023-05-11T02:20:53.211Z,89485.31
2023-05-11T02:23:21.884Z,89474.75
2023-05-11T02:25:50.034Z,89465.69
2023-05-11T02:28:16.361Z,89439.22
2023-05-11T02:30:48.261Z,89442.25
2023-05-11T02:33:21.541Z,89418.81
2023-05-11T02:35:50.902Z,89399.16
2023-05-11T02:38:18.778Z,89387.06
2023-05-11T02:40:51.907Z,89358.72
2023-05-11T02:43:25.357Z,89356.81
2023-05-11T02:45:57.478Z,89322.06
2023-05-11T02:48:27.404Z,89300.13
2023-05-11T02:50:56.131Z,89291.41
2023-05-11T02:53:27.725Z,89280.47
2023-05-11T02:55:58.113Z,89251.34
2023-05-11T02:58:24.764Z,89250.59
2023-05-11T03:00:51.931Z,89230.94
2023-05-11T03:03:18.817Z,89227.16
2023-05-11T03:05:45.533Z,89208.63
2023-05-11T03:08:12.418Z,89206.34
2023-05-11T03:10:39.534Z,89176.09
2023-05-11T03:13:07.446Z,89113.34
2023-05-11T03:15:34.434Z,89084.22
2023-05-11T03:18:01.841Z,89053.56
2023-05-11T03:20:29.622Z,89027.09
2023-05-11T03:22:56.774Z,89093.66
2023-05-11T03:25:24.765Z,89113.34
2023-05-11T03:27:53.269Z,89135.66
2023-05-11T03:30:20.722Z,89154.19
2023-05-11T03:32:47.393Z,89148.53
2023-05-11T03:35:14.397Z,89134.16
2023-05-11T03:37:43.253Z,89094.03
2023-05-11T03:40:12.235Z,89095.94
2023-05-11T03:42:41.221Z,89085.34
2023-05-11T03:45:13.841Z,89109.56
2023-05-11T03:47:42.898Z,89145.88
2023-05-11T03:50:10.011Z,89150.41
2023-05-11T03:52:37.721Z,89157.22
2023-05-11T03:55:05.166Z,89161.75
2023-05-11T03:57:31.648Z,89161.00
2023-05-11T03:59:58.517Z,89168.97
2023-05-11T04:02:25.036Z,89158.75
2023-05-11T04:04:53.014Z,89143.59
2023-05-11T04:07:20.136Z,89136.03
2023-05-11T04:09:46.480Z,89109.16
2023-05-11T04:12:12.851Z,89142.09
2023-05-11T04:14:39.560Z,89138.31
2023-05-11T04:17:05.988Z,89164.81
2023-05-11T04:19:32.712Z,89175.38
2023-05-11T04:21:59.301Z,89175.38
2023-05-11T04:24:25.691Z,89161.38
2023-05-11T04:26:56.031Z,89140.59
2023-05-11T04:29:22.790Z,89133.75
2023-05-11T04:31:49.489Z,89164.03
2023-05-11T04:34:15.927Z,89185.22
2023-05-11T04:36:42.686Z,89174.25
2023-05-11T04:39:09.010Z,89160.25
2023-05-11T04:41:35.383Z,89185.59
2023-05-11T04:44:02.109Z,89197.31
2023-05-11T04:46:28.548Z,89165.94
2023-05-11T04:48:54.981Z,89155.72
2023-05-11T04:51:21.697Z,89157.22
2023-05-11T04:53:48.025Z,89158.72
2023-05-11T04:56:14.371Z,89149.66
2023-05-11T04:58:41.363Z,89125.41
2023-05-11T05:01:07.733Z,89111.03
2023-05-11T05:03:34.193Z,89098.16
2023-05-11T05:06:00.974Z,89117.81
2023-05-11T05:08:27.317Z,89097.75
2023-05-11T05:10:53.739Z,89100.03
2023-05-11T05:13:20.494Z,89090.56
2023-05-11T05:15:46.900Z,89099.63
2023-05-11T05:18:13.251Z,89113.28
2023-05-11T05:20:40.197Z,89117.44
2023-05-11T05:23:06.514Z,89115.16
2023-05-11T05:25:32.828Z,89113.25
2023-05-11T05:27:59.588Z,89115.53
2023-05-11T05:30:26.209Z,89113.22
2023-05-11T05:32:52.667Z,89118.53
2023-05-11T05:35:19.566Z,89128.41
2023-05-11T05:37:46.370Z,89141.28
2023-05-11T05:40:12.770Z,89155.66
2023-05-11T05:42:39.325Z,89183.69
2023-05-11T05:45:06.219Z,89186.69
2023-05-11T05:47:32.663Z,89194.25
2023-05-11T05:49:59.370Z,89226.84
2023-05-11T05:52:25.838Z,89235.19
2023-05-11T05:54:52.167Z,89240.47
2023-05-11T05:57:18.874Z,89273.84
2023-05-11T05:59:45.253Z,89316.97
2023-05-11T06:02:13.375Z,89328.00
2023-05-11T06:04:40.173Z,89343.53
2023-05-11T06:07:06.493Z,89340.50
2023-05-11T06:09:32.822Z,89362.47
2023-05-11T06:11:59.795Z,89390.13
2023-05-11T06:14:26.127Z,89401.47
2023-05-11T06:16:54.140Z,89400.75
2023-05-11T06:19:20.509Z,89397.34
2023-05-11T06:21:48.468Z,89402.25
2023-05-11T06:24:15.164Z,89388.22
2023-05-11T06:26:41.554Z,89377.63
2023-05-11T06:29:08.020Z,89405.31
2023-05-11T06:31:34.933Z,89412.50
2023-05-11T06:34:01.347Z,89397.72
2023-05-11T06:36:27.726Z,89393.19
2023-05-11T06:38:54.493Z,89409.88
2023-05-11T06:41:21.328Z,89412.13
2023-05-11T06:43:47.700Z,89439.78
2023-05-11T06:46:16.762Z,89478.06
2023-05-11T06:48:43.432Z,89526.19
2023-05-11T06:51:11.456Z,89566.34
2023-05-11T06:53:38.851Z,89559.56
2023-05-11T06:56:05.645Z,89575.13
2023-05-11T06:58:32.043Z,89573.59
2023-05-11T07:00:58.836Z,89576.28
2023-05-11T07:03:25.185Z,89620.94
2023-05-11T07:05:51.561Z,89632.34
2023-05-11T07:08:18.352Z,89651.63
2023-05-11T07:10:44.702Z,89647.91
2023-05-11T07:13:11.128Z,89659.69
2023-05-11T07:15:37.910Z,89691.13
2023-05-11T07:18:04.494Z,89720.22
2023-05-11T07:20:31.133Z,89714.25
2023-05-11T07:23:02.536Z,89721.88
2023-05-11T07:25:29.634Z,89736.63
2023-05-11T07:27:56.160Z,89741.97
2023-05-11T07:30:23.116Z,89741.63
2023-05-11T07:32:49.917Z,89769.59
2023-05-11T07:35:16.347Z,89756.78
2023-05-11T07:37:43.138Z,89745.78
2023-05-11T07:40:10.317Z,89740.47
2023-05-11T07:42:36.703Z,89747.75
2023-05-11T07:45:03.588Z,89776.91
2023-05-11T07:47:29.953Z,89793.19
2023-05-11T07:49:56.371Z,89787.16
2023-05-11T07:52:23.190Z,89818.94
2023-05-11T07:54:49.528Z,89803.50
2023-05-11T07:57:15.881Z,89826.59
2023-05-11T07:59:42.665Z,89824.75
2023-05-11T08:02:10.981Z,89830.47
2023-05-11T08:04:39.640Z,89812.31
2023-05-11T08:07:06.039Z,89807.06
2023-05-11T08:09:32.510Z,89800.19
2023-05-11T08:12:02.052Z,89769.50
2023-05-11T08:14:28.477Z,89764.19
2023-05-11T08:16:54.887Z,89735.41
2023-05-11T08:19:21.625Z,89788.84
2023-05-11T08:21:48.121Z,89817.63
2023-05-11T08:24:14.989Z,89815.41
2023-05-11T08:26:41.786Z,89813.59
2023-05-11T08:29:08.161Z,89812.50
2023-05-11T08:31:34.601Z,89775.38
2023-05-11T08:34:01.552Z,89925.28
2023-05-11T08:36:28.074Z,89923.84
2023-05-11T08:38:58.991Z,89926.22
2023-05-11T08:41:26.208Z,89956.53
2023-05-11T08:43:54.975Z,89975.13
2023-05-11T08:46:23.535Z,89982.09
2023-05-11T08:48:50.778Z,89987.09
2023-05-11T08:51:17.229Z,89989.81
2023-05-11T08:53:43.604Z,89978.16
2023-05-11T08:56:12.179Z,89988.88
2023-05-11T08:58:39.802Z,90021.13
2023-05-11T09:01:07.168Z,90081.41
2023-05-11T09:03:36.343Z,90101.19
2023-05-11T09:06:07.124Z,90084.59
2023-05-11T09:08:38.411Z,90057.44
2023-05-11T09:11:06.070Z,90076.84
2023-05-11T09:13:33.069Z,90173.13
2023-05-11T09:15:59.835Z,90251.47
2023-05-11T09:18:26.732Z,90257.31
2023-05-11T09:20:53.201Z,90320.50
2023-05-11T09:23:25.858Z,90340.22
2023-05-11T09:25:55.100Z,90302.03
2023-05-11T09:28:27.187Z,90306.63
2023-05-11T09:30:53.903Z,90319.22
2023-05-11T09:33:25.499Z,90268.34
2023-05-11T09:35:54.421Z,90280.56
2023-05-11T09:38:22.942Z,90286.00
2023-05-11T09:40:55.477Z,90454.63
2023-05-11T09:43:27.434Z,90479.53
2023-05-11T09:46:01.753Z,90558.97
2023-05-11T09:48:31.648Z,90629.06
2023-05-11T09:51:08.366Z,90692.53
2023-05-11T09:53:45.297Z,90676.72
2023-05-11T09:56:13.338Z,90679.66
2023-05-11T09:58:55.001Z,90728.69
2023-05-11T10:01:33.448Z,90734.66
2023-05-11T10:04:20.550Z,90722.78
2023-05-11T10:06:50.785Z,90746.75
2023-05-11T10:09:22.437Z,90758.69
2023-05-11T10:11:51.782Z,90830.31
2023-05-11T10:14:19.112Z,90866.75
2023-05-11T10:16:46.811Z,90835.41
2023-05-11T10:19:14.702Z,90833.38
2023-05-11T10:21:41.353Z,90865.94
2023-05-11T10:24:08.296Z,90881.91
2023-05-11T10:26:35.542Z,90869.44
2023-05-11T10:29:02.672Z,90899.28
2023-05-11T10:31:29.754Z,90940.03
2023-05-11T10:33:57.897Z,90947.41
2023-05-11T10:36:25.459Z,90959.94
2023-05-11T10:38:51.816Z,91009.63
2023-05-11T10:41:39.542Z,90975.69
2023-05-11T10:44:14.911Z,90937.16
2023-05-11T10:47:22.099Z,91027.28
2023-05-11T10:50:27.156Z,91001.47
2023-05-11T10:53:01.858Z,91006.47
2023-05-11T10:55:47.138Z,91064.41
2023-05-11T10:58:19.998Z,91170.72
2023-05-11T11:01:12.431Z,91184.63
2023-05-11T11:03:39.079Z,91258.31
2023-05-11T11:06:05.738Z,91289.97
2023-05-11T11:09:27.220Z,91302.22
2023-05-11T11:12:09.620Z,91271.38
2023-05-11T11:14:55.023Z,91238.66
2023-05-11T11:17:24.385Z,91190.66
2023-05-11T11:19:50.867Z,91167.88
2023-05-11T11:22:35.756Z,91147.16
2023-05-11T11:25:05.600Z,91173.03
2023-05-11T11:27:56.253Z,91250.94
2023-05-11T11:30:25.210Z,91237.22
2023-05-11T11:32:54.035Z,91211.03
2023-05-11T11:35:39.353Z,91209.06
2023-05-11T11:38:09.466Z,91243.72
2023-05-11T11:40:50.552Z,91218.94
2023-05-11T11:43:26.045Z,91214.47
2023-05-11T11:45:55.326Z,91176.59
2023-05-11T11:48:36.222Z,91116.72
2023-05-11T11:51:05.993Z,91136.22
2023-05-11T11:53:40.773Z,91208.59
2023-05-11T11:56:09.436Z,91250.50
2023-05-11T11:58:41.667Z,91294.47
2023-05-11T12:01:10.484Z,91258.91
2023-05-11T12:03:37.738Z,91251.97
2023-05-11T12:06:09.454Z,91249.22
2023-05-11T12:08:38.191Z,91277.53
2023-05-11T12:11:05.953Z,91205.81
2023-05-11T12:13:33.866Z,91186.69
2023-05-11T12:16:13.604Z,91238.13
2023-05-11T12:18:42.187Z,91204.41
2023-05-11T12:21:28.830Z,91165.38
2023-05-11T12:23:59.369Z,91185.59
2023-05-11T12:26:27.651Z,91125.16
2023-05-11T12:29:08.000Z,91308.81
2023-05-11T12:31:38.617Z,91358.50
2023-05-11T12:34:05.279Z,91383.34
2023-05-11T12:36:33.727Z,91421.94
2023-05-11T12:39:00.604Z,91434.66
2023-05-11T12:41:27.338Z,91432.47
2023-05-11T12:43:56.475Z,91485.78
2023-05-11T12:46:23.656Z,91552.25
2023-05-11T12:48:51.328Z,91509.13
2023-05-11T12:52:01.087Z,91481.94
2023-05-11T12:54:38.418Z,91490.63
2023-05-11T12:57:09.849Z,91473.75
2023-05-11T12:59:39.097Z,91532.25
2023-05-11T13:02:16.962Z,91465.91
2023-05-11T13:04:44.202Z,91480.69
2023-05-11T13:07:11.837Z,91549.50
2023-05-11T13:09:39.486Z,91504.00
2023-05-11T13:12:19.270Z,91477.91
2023-05-11T13:14:48.012Z,91470.50
2023-05-11T13:17:29.955Z,91431.81
2023-05-11T13:19:56.607Z,91466.75
2023-05-11T13:22:22.941Z,91431.56
2023-05-11T13:24:50.904Z,91437.03
2023-05-11T13:27:17.254Z,91453.38
2023-05-11T13:29:43.618Z,91444.56
2023-05-11T13:32:10.006Z,91485.34
2023-05-11T13:34:37.680Z,91475.16
2023-05-11T13:37:04.171Z,91501.09
2023-05-11T13:39:30.531Z,91524.41
2023-05-11T13:41:57.300Z,91482.47
2023-05-11T13:44:23.634Z,91480.53
2023-05-11T13:46:50.282Z,91467.44
2023-05-11T13:49:17.810Z,91451.38
2023-05-11T13:51:44.142Z,91453.28
2023-05-11T13:54:10.541Z,91465.69
2023-05-11T13:56:37.673Z,91467.91
2023-05-11T13:59:04.067Z,91453.31
2023-05-11T14:01:30.518Z,91438.50
2023-05-11T14:03:57.222Z,91426.19
2023-05-11T14:06:24.816Z,91407.81
2023-05-11T14:08:51.930Z,91367.00
2023-05-11T14:11:18.771Z,91289.50
2023-05-11T14:13:45.145Z,91249.63
2023-05-11T14:16:11.644Z,91219.41
2023-05-11T14:18:38.532Z,91208.81
2023-05-11T14:21:04.934Z,91186.50
2023-05-11T14:23:31.394Z,91189.00
2023-05-11T14:25:58.426Z,91173.84
2023-05-11T14:28:24.840Z,91114.94
2023-05-11T14:30:51.247Z,91072.56
2023-05-11T14:33:18.028Z,91066.06
2023-05-11T14:35:44.427Z,91016.25
2023-05-11T14:38:11.430Z,91024.28
2023-05-11T14:40:37.762Z,91041.63
2023-05-11T14:43:04.155Z,91015.28
2023-05-11T14:45:30.976Z,91005.06
2023-05-11T14:47:57.367Z,91070.13
2023-05-11T14:50:23.715Z,91124.63
2023-05-11T14:52:50.798Z,91151.56
2023-05-11T14:55:17.479Z,91177.59
2023-05-11T14:57:44.002Z,91194.75
2023-05-11T15:00:11.631Z,91193.66
2023-05-11T15:02:38.231Z,91198.03
2023-05-11T15:05:06.281Z,91216.53
2023-05-11T15:07:32.944Z,91222.28
2023-05-11T15:10:01.612Z,91217.81
2023-05-11T15:12:28.131Z,91248.84
2023-05-11T15:14:54.904Z,91227.66
2023-05-11T15:17:21.366Z,91206.09
2023-05-11T15:19:47.791Z,91201.22
2023-05-11T15:22:14.484Z,91237.94
2023-05-11T15:24:41.112Z,91256.13
2023-05-11T15:27:07.544Z,91245.16
2023-05-11T15:29:34.429Z,91208.66
2023-05-11T15:32:01.063Z,91225.03
2023-05-11T15:34:27.428Z,91191.38
2023-05-11T15:36:54.351Z,91188.09
2023-05-11T15:39:20.729Z,91188.84
2023-05-11T15:41:47.054Z,91194.13
2023-05-11T15:44:14.251Z,91155.47
2023-05-11T15:46:40.778Z,91158.44
2023-05-11T15:49:07.984Z,91127.97
2023-05-11T15:51:34.420Z,91145.00
2023-05-11T15:54:00.943Z,91110.66
2023-05-11T15:56:27.706Z,91072.84
2023-05-11T15:58:54.056Z,91061.25
2023-05-11T16:01:20.974Z,91029.13
2023-05-11T16:03:47.481Z,91034.38
2023-05-11T16:06:13.858Z,91061.34
2023-05-11T16:08:41.440Z,91074.81
2023-05-11T16:11:08.853Z,91051.13
2023-05-11T16:13:35.193Z,91119.75
2023-05-11T16:16:01.595Z,91165.53
2023-05-11T16:18:29.058Z,91166.72
2023-05-11T16:20:56.308Z,91163.34
2023-05-11T16:23:22.752Z,91190.34
2023-05-11T16:25:49.496Z,91207.63
2023-05-11T16:28:16.009Z,91200.41
2023-05-11T16:30:42.556Z,91248.81
2023-05-11T16:33:09.291Z,91283.00
2023-05-11T16:35:35.760Z,91317.38
2023-05-11T16:38:02.506Z,91337.66
2023-05-11T16:40:30.718Z,91352.50
2023-05-11T16:42:57.088Z,91349.28
2023-05-11T16:45:23.512Z,91335.75
2023-05-11T16:47:50.249Z,91328.47
2023-05-11T16:50:18.688Z,91305.22
2023-05-11T16:52:45.284Z,91293.25
2023-05-11T16:55:11.747Z,91287.59
2023-05-11T16:57:38.683Z,91286.41
2023-05-11T17:00:06.337Z,91286.22
2023-05-11T17:02:32.745Z,91293.97
2023-05-11T17:05:00.023Z,91270.06
2023-05-11T17:07:26.703Z,91257.91
2023-05-11T17:09:56.786Z,91265.34
2023-05-11T17:12:24.418Z,91259.94
2023-05-11T17:14:50.786Z,91246.59
2023-05-11T17:17:17.581Z,91242.66
2023-05-11T17:19:44.243Z,91239.00
2023-05-11T17:22:11.599Z,91225.34
2023-05-11T17:24:38.165Z,91238.22
2023-05-11T17:27:05.616Z,91240.44
2023-05-11T17:29:32.680Z,91235.75
2023-05-11T17:31:59.649Z,91239.84
2023-05-11T17:34:28.633Z,91212.69
2023-05-11T17:36:55.801Z,91247.19
2023-05-11T17:39:22.165Z,91264.34
2023-05-11T17:41:48.589Z,91279.19
2023-05-11T17:44:15.512Z,91262.47
2023-05-11T17:46:41.865Z,91245.53
2023-05-11T17:49:08.302Z,91253.28
2023-05-11T17:51:34.980Z,91260.38
2023-05-11T17:54:01.334Z,91274.56
2023-05-11T17:56:27.668Z,91266.69
2023-05-11T17:58:54.967Z,91286.84
2023-05-11T18:01:22.551Z,91274.69
2023-05-11T18:03:49.163Z,91290.03
2023-05-11T18:06:17.349Z,91264.81
2023-05-11T18:08:43.891Z,91255.97
2023-05-11T18:11:11.093Z,91235.28
2023-05-11T18:13:37.842Z,91203.38
2023-05-11T18:16:04.728Z,91177.63
2023-05-11T18:18:31.882Z,91132.41
2023-05-11T18:20:58.765Z,91096.16
2023-05-11T18:23:25.099Z,91054.94
2023-05-11T18:25:51.430Z,91024.91
2023-05-11T18:28:18.317Z,91005.91
2023-05-11T18:30:44.641Z,91004.47
2023-05-11T18:33:11.383Z,91000.94
2023-05-11T18:35:40.511Z,91000.75
2023-05-11T18:38:07.392Z,91024.44
2023-05-11T18:40:35.136Z,91034.59
2023-05-11T18:43:01.476Z,91020.56
2023-05-11T18:45:32.826Z,91028.66
2023-05-11T18:47:59.688Z,91024.34
2023-05-11T18:50:27.099Z,91001.00
2023-05-11T18:52:53.463Z,90993.28
2023-05-11T18:55:20.286Z,90977.38
2023-05-11T18:57:46.768Z,90969.13
2023-05-11T19:00:13.939Z,90963.03
2023-05-11T19:02:40.350Z,90949.34
2023-05-11T19:05:07.315Z,90919.03
2023-05-11T19:07:34.097Z,90916.38
2023-05-11T19:10:00.517Z,90895.84
2023-05-11T19:12:27.210Z,90885.22
2023-05-11T19:14:56.080Z,90873.97
2023-05-11T19:17:23.577Z,90871.53
2023-05-11T19:19:50.322Z,90873.69
2023-05-11T19:22:17.342Z,90854.13
2023-05-11T19:24:43.729Z,90847.19
2023-05-11T19:27:10.602Z,90835.47
2023-05-11T19:29:36.939Z,90830.25
2023-05-11T19:32:04.001Z,90814.34
2023-05-11T19:34:30.369Z,90814.34
2023-05-11T19:36:56.716Z,90808.94
2023-05-11T19:39:24.605Z,90798.03
2023-05-11T19:41:51.372Z,90783.66
2023-05-11T19:44:17.811Z,90778.34
2023-05-11T19:46:46.875Z,90799.88
2023-05-11T19:49:15.451Z,90813.06
2023-05-11T19:51:42.958Z,90818.38
2023-05-11T19:54:10.667Z,90813.97
2023-05-11T19:56:37.052Z,90797.03
2023-05-11T19:59:04.880Z,90759.78
2023-05-11T20:01:31.469Z,90735.34
2023-05-11T20:03:58.041Z,90692.16
2023-05-11T20:06:27.878Z,90662.41
2023-05-11T20:08:54.280Z,90657.88
2023-05-11T20:11:22.333Z,90646.84
2023-05-11T20:13:49.134Z,90647.03
2023-05-11T20:16:15.569Z,90646.09
2023-05-11T20:18:42.462Z,90647.22
2023-05-11T20:21:08.861Z,90631.75
2023-05-11T20:23:37.218Z,90615.41
2023-05-11T20:26:04.588Z,90604.72
2023-05-11T20:28:31.071Z,90610.56
2023-05-11T20:30:57.422Z,90609.69
2023-05-11T20:35:53.840Z,90592.53
2023-05-11T20:38:20.478Z,90578.19
2023-05-11T20:40:46.837Z,90569.78
2023-05-11T20:43:14.750Z,90566.03
2023-05-11T20:45:41.459Z,90549.47
2023-05-11T20:48:08.027Z,90537.31
2023-05-11T20:50:34.684Z,90530.16
2023-05-11T20:53:01.037Z,90528.97
2023-05-11T20:55:27.366Z,90523.25
2023-05-11T20:57:54.242Z,90514.53
2023-05-11T21:00:20.971Z,90510.00
2023-05-11T21:02:47.706Z,90501.78
2023-05-11T21:05:14.314Z,90485.13
2023-05-11T21:07:40.644Z,90469.59
2023-05-11T21:10:07.762Z,90467.00
2023-05-11T21:12:34.563Z,90445.19
2023-05-11T21:15:00.981Z,90440.59
2023-05-11T21:17:27.343Z,90432.63
2023-05-11T21:19:54.277Z,90434.53
2023-05-11T21:22:20.728Z,90428.06
2023-05-11T21:24:47.059Z,90428.31
2023-05-11T21:27:13.669Z,90429.88
2023-05-11T21:29:39.982Z,90419.06
2023-05-11T21:32:06.802Z,90398.69
2023-05-11T21:34:33.561Z,90398.97
2023-05-11T21:36:59.886Z,90399.38
2023-05-11T21:39:26.264Z,90378.63
2023-05-11T21:41:52.979Z,90395.13
2023-05-11T21:44:19.810Z,90381.88
2023-05-11T21:46:46.633Z,90395.84
2023-05-11T21:49:13.557Z,90398.09
2023-05-11T21:51:39.945Z,90401.47
2023-05-11T21:54:06.641Z,90406.44
2023-05-11T21:56:33.275Z,90394.81
2023-05-11T21:58:59.662Z,90385.50
2023-05-11T22:01:26.417Z,90393.75
2023-05-11T22:03:53.078Z,90392.91
2023-05-11T22:06:19.839Z,90410.13
2023-05-11T22:08:46.303Z,90425.47
2023-05-11T22:11:12.696Z,90416.81
2023-05-11T22:13:39.502Z,90419.97
2023-05-11T22:16:06.289Z,90436.47
2023-05-11T22:18:32.917Z,90439.38
2023-05-11T22:20:59.647Z,90449.56
2023-05-11T22:23:26.747Z,90450.59
2023-05-11T22:25:53.264Z,90449.19
2023-05-11T22:28:20.117Z,90463.41
2023-05-11T22:30:46.525Z,90463.41
2023-05-11T22:33:13.244Z,90455.94
2023-05-11T22:35:39.855Z,90447.69
2023-05-11T22:38:06.296Z,90450.59
2023-05-11T22:40:32.645Z,90461.00
2023-05-11T22:42:58.969Z,90457.69
2023-05-11T22:45:25.436Z,90446.06
2023-05-11T22:47:52.463Z,90444.16
2023-05-11T22:50:19.147Z,90448.56
2023-05-11T22:52:47.141Z,90439.41
2023-05-11T22:55:14.007Z,90442.06
2023-05-11T22:57:40.346Z,90436.78
2023-05-11T23:00:11.266Z,90421.72
2023-05-11T23:02:38.610Z,90418.72
2023-05-11T23:05:05.505Z,90412.75
2023-05-11T23:07:31.851Z,90403.34
2023-05-11T23:09:58.835Z,90388.56
2023-05-11T23:12:25.190Z,90367.47
2023-05-11T23:14:52.219Z,90351.38
2023-05-11T23:17:19.243Z,90340.34
2023-05-11T23:19:45.641Z,90335.75
2023-05-11T23:22:11.973Z,90327.13
2023-05-11T23:24:38.740Z,90323.66
2023-05-11T23:27:05.347Z,90326.63
2023-05-11T23:29:31.887Z,90315.44
2023-05-11T23:31:58.264Z,90296.59
2023-05-11T23:34:25.031Z,90280.69
2023-05-11T23:36:51.419Z,90279.59
2023-05-11T23:39:17.795Z,90271.66
2023-05-11T23:41:44.639Z,90284.34
2023-05-11T23:44:11.043Z,90282.09
2023-05-11T23:46:37.420Z,90272.34
2023-05-11T23:49:04.657Z,90272.06
2023-05-11T23:51:30.977Z,90262.56
2023-05-11T23:53:57.342Z,90263.69
2023-05-11T23:56:24.213Z,90271.44
2023-05-11T23:58:50.592Z,90278.81
